Annapolis, MD (21401)

9:07 AM EDT on October 25, 2014 (GMT -0400)
Indian Hills/Glen Eden | Change Station
CLOSE
Current Station
Personal Weather Station
Location: Arnold, MD
Elevation: 66 ft
Nearby Weather Stations

Elev 66 ft 39.02 °N, 76.49 °W | Updated 2 seconds ago

Clear
Clear
47.1 °F
Feels Like 47 °F
N
0.0
Wind Variable Wind from SSE
Gusts 0.0 mph

Today
High -- | Low -- °F
--% Chance of Precip.
Yesterday
High -- | Low -- °F
Precip. -- in
7:25 AM 6:13 PM
Waxing Crescent, 3% visible
Pressure 29.96 in
Visibility 10.0 miles
Clouds Clear
Windchill 47 °F
Dew Point 46 °F
Humidity 95%
Rainfall 0.00 in
Snow Depth Not available.
UV 1 out of 12
Pollen 1.20 out of 12
Air Quality Not available.
Flu Activity Sporadic
METAR KNAK 251254Z AUTO 27003KT 10SM CLR 11/05 A2995 RMK AO2 SLP144 T01110050

More Conditions Fewer Conditions

Pressure 29.96 in
Visibility 10.0 miles
Clouds Clear
Windchill 47 °F
Dew Point 46 °F
Humidity 95%
Rainfall 0.00 in
Snow Depth Not available.
UV 1 out of 12
Pollen 1.20 out of 12
Air Quality Not available.
Flu Activity Sporadic
METAR KNAK 251254Z AUTO 27003KT 10SM CLR 11/05 A2995 RMK AO2 SLP144 T01110050

More Conditions Fewer Conditions

10-Day Weather Forecast

Almanac

Astronomy

Oct. 25, 2014 Rise Set
Actual Time 7:25 AM EDT 6:13 PM EDT
Civil Twilight 6:58 AM EDT 6:41 PM EDT
Nautical Twilight 6:27 AM EDT 7:12 PM EDT
Astronomical Twilight 5:56 AM EDT 7:43 PM EDT
Moon 9:01 AM EDT 7:35 PM EDT
Length of Visible Light 11h 42m
Length of Day
10h 47m
Tomorrow will be 2m 20s shorter.
Waxing Crescent, 3% of the Moon is Illuminated
Today
Waxing Crescent
Oct 30
First Quarter
Nov 6
Full
Nov 14
Last Quarter
Nov 22
New

Today's Extremes

State Highs State Lows

Community

WunderPhotos

Upload Photos

1,764,824 photos uploaded!

Nearby

Snow Depth

Station Depth Elevation
No new snow has been reported.

Earthquake Activity

City Distance Mag. Time & Date
No recent earthquake activity has been reported nearby.
Minimum magnitude displayed is 2.5.

Coastal Water Temperatures

Place Temperature
Cambridge, MD 60.1 °F
Tolchester Beach, MD 57.9 °F
Baltimore, MD 64.0 °F

Nearby Weather Stations